createdAt,value
2018-05-14T00:00:27.430Z,16.4
2018-05-14T00:01:37.447Z,16.41
2018-05-14T00:02:47.192Z,16.4
2018-05-14T00:03:57.257Z,16.29
2018-05-14T00:05:07.007Z,16.25
2018-05-14T00:06:17.026Z,16.16
2018-05-14T00:07:27.052Z,16.21
2018-05-14T00:08:37.074Z,16.13
2018-05-14T00:09:47.090Z,16.21
2018-05-14T00:10:57.100Z,16.03
2018-05-14T00:12:06.849Z,16.09
2018-05-14T00:13:16.600Z,16.16
2018-05-14T00:14:26.344Z,16.09
2018-05-14T00:15:36.358Z,15.99
2018-05-14T00:16:46.103Z,15.94
2018-05-14T00:17:55.580Z,15.92
2018-05-14T00:19:05.600Z,15.92
2018-05-14T00:20:15.092Z,15.94
2018-05-14T00:21:25.108Z,15.94
2018-05-14T00:22:34.858Z,15.87
2018-05-14T00:23:44.615Z,15.83
2018-05-14T00:24:54.711Z,15.81
2018-05-14T00:26:04.727Z,15.83
2018-05-14T00:27:14.209Z,15.7
2018-05-14T00:28:23.970Z,15.67
2018-05-14T00:29:33.722Z,15.81
2018-05-14T00:30:43.739Z,15.7
2018-05-14T00:31:53.749Z,15.67
2018-05-14T00:33:03.497Z,15.67
2018-05-14T00:34:13.582Z,15.63
2018-05-14T00:35:23.599Z,15.55
2018-05-14T00:36:33.082Z,15.52
2018-05-14T00:37:42.843Z,15.48
2018-05-14T00:38:52.865Z,15.39
2018-05-14T00:40:02.884Z,15.37
2018-05-14T00:41:12.636Z,15.32
2018-05-14T00:42:22.652Z,15.39
2018-05-14T00:43:32.397Z,15.3
2018-05-14T00:44:42.411Z,15.33
2018-05-14T00:45:52.429Z,15.33
2018-05-14T00:47:02.236Z,15.3
2018-05-14T00:48:12.262Z,15.19
2018-05-14T00:49:22.131Z,15.25
2018-05-14T00:50:32.197Z,15.25
2018-05-14T00:51:41.952Z,15.23
2018-05-14T00:52:51.693Z,15.18
2018-05-14T00:54:01.449Z,15.11
2018-05-14T00:55:10.667Z,15.25
2018-05-14T00:56:20.684Z,15.18
2018-05-14T00:57:30.431Z,15.18
2018-05-14T00:58:40.461Z,15.12
2018-05-14T00:59:49.940Z,15.11
2018-05-14T01:00:59.685Z,15.02
2018-05-14T01:02:09.442Z,14.96
2018-05-14T01:03:19.189Z,14.97
2018-05-14T01:04:28.930Z,14.99
2018-05-14T01:05:38.945Z,14.96
2018-05-14T01:06:48.427Z,14.85
2018-05-14T01:07:57.910Z,14.85
2018-05-14T01:09:07.389Z,14.79
2018-05-14T01:10:17.137Z,14.77
2018-05-14T01:11:26.883Z,14.7
2018-05-14T01:12:36.907Z,14.7
2018-05-14T01:13:46.929Z,14.7
2018-05-14T01:14:56.686Z,14.78
2018-05-14T01:16:06.433Z,14.63
2018-05-14T01:17:15.914Z,14.71
2018-05-14T01:18:25.931Z,14.67
2018-05-14T01:19:35.690Z,14.67
2018-05-14T01:20:45.701Z,14.66
2018-05-14T01:21:55.719Z,14.59
2018-05-14T01:23:05.463Z,14.66
2018-05-14T01:24:14.941Z,14.51
2018-05-14T01:25:24.952Z,14.55
2018-05-14T01:26:34.971Z,14.55
2018-05-14T01:27:45.003Z,14.51
2018-05-14T01:28:55.027Z,14.58
2018-05-14T01:30:04.774Z,14.53
2018-05-14T01:31:14.523Z,14.49
2018-05-14T01:32:24.002Z,14.56
2018-05-14T01:33:33.753Z,14.44
2018-05-14T01:34:43.781Z,14.37
2018-05-14T01:35:53.797Z,14.43
2018-05-14T01:37:03.280Z,14.33
2018-05-14T01:38:13.295Z,14.33
2018-05-14T01:39:23.306Z,14.26
2018-05-14T01:40:33.051Z,14.28
2018-05-14T01:41:42.797Z,14.28
2018-05-14T01:42:52.890Z,14.3
2018-05-14T01:44:02.637Z,14.16
2018-05-14T01:45:12.649Z,14.15
2018-05-14T01:46:22.395Z,14.15
2018-05-14T01:47:32.486Z,14.11
2018-05-14T01:48:41.702Z,14.07
2018-05-14T01:49:51.183Z,14.04
2018-05-14T01:51:01.198Z,14.05
2018-05-14T01:52:10.943Z,14.05
2018-05-14T01:53:20.963Z,14.05
2018-05-14T01:54:30.986Z,14.08
2018-05-14T01:55:41.007Z,14.03
2018-05-14T01:56:50.751Z,14.04
2018-05-14T01:58:00.775Z,13.98
2018-05-14T01:59:10.518Z,14.12
2018-05-14T02:00:20.269Z,14.11
2018-05-14T02:01:30.289Z,14.01
2018-05-14T02:02:40.037Z,14.04
2018-05-14T02:03:50.052Z,13.98
2018-05-14T02:05:00.062Z,14
2018-05-14T02:06:10.080Z,13.94
2018-05-14T02:07:19.825Z,13.86
2018-05-14T02:08:30.035Z,14
2018-05-14T02:09:39.777Z,13.93
2018-05-14T02:10:49.790Z,13.85
2018-05-14T02:11:59.799Z,13.87
2018-05-14T02:13:09.279Z,13.95
2018-05-14T02:14:19.291Z,13.93
2018-05-14T02:15:28.773Z,13.87
2018-05-14T02:16:38.523Z,13.87
2018-05-14T02:17:48.537Z,13.86
2018-05-14T02:18:58.290Z,13.91
2018-05-14T02:20:08.133Z,13.85
2018-05-14T02:21:18.140Z,13.87
2018-05-14T02:22:28.150Z,13.82
2018-05-14T02:23:38.189Z,13.8
2018-05-14T02:24:48.205Z,13.8
2018-05-14T02:25:57.685Z,13.86
2018-05-14T02:27:07.177Z,13.86
2018-05-14T02:28:16.918Z,13.76
2018-05-14T02:29:26.928Z,13.7
2018-05-14T02:30:36.362Z,13.68
2018-05-14T02:31:45.926Z,13.67
2018-05-14T02:32:55.950Z,13.79
2018-05-14T02:34:05.971Z,13.62
2018-05-14T02:35:15.989Z,13.7
2018-05-14T02:36:26.006Z,13.62
2018-05-14T02:37:36.020Z,13.52
2018-05-14T02:38:45.767Z,13.55
2018-05-14T02:39:55.532Z,13.57
2018-05-14T02:41:05.552Z,13.54
2018-05-14T02:42:15.564Z,13.58
2018-05-14T02:43:25.576Z,13.43
2018-05-14T02:44:35.323Z,13.42
2018-05-14T02:45:45.346Z,13.47
2018-05-14T02:46:55.093Z,13.4
2018-05-14T02:48:05.106Z,13.31
2018-05-14T02:49:14.868Z,13.4
2018-05-14T02:50:24.374Z,13.4
2018-05-14T02:51:34.397Z,13.33
2018-05-14T02:52:44.414Z,13.2
2018-05-14T02:53:54.440Z,13.24
2018-05-14T02:55:03.977Z,13.26
2018-05-14T02:56:13.454Z,13.23
2018-05-14T02:57:23.473Z,13.33
2018-05-14T02:58:33.494Z,13.26
2018-05-14T02:59:43.239Z,13.27
2018-05-14T03:03:34.631Z,13.23
2018-05-14T03:04:44.209Z,13.31
2018-05-14T03:05:53.734Z,13.24
2018-05-14T03:07:03.510Z,13.39
2018-05-14T03:08:13.254Z,13.31
2018-05-14T03:09:23.263Z,13.3
2018-05-14T03:10:33.319Z,13.33
2018-05-14T03:11:43.377Z,13.4
2018-05-14T03:12:53.143Z,13.42
2018-05-14T03:14:02.899Z,13.45
2018-05-14T03:15:12.918Z,13.55
2018-05-14T03:16:22.760Z,13.46
2018-05-14T03:17:32.773Z,13.52
2018-05-14T03:18:42.786Z,13.5
2018-05-14T03:19:52.807Z,13.54
2018-05-14T03:21:02.818Z,13.5
2018-05-14T03:22:12.309Z,13.57
2018-05-14T03:23:22.053Z,13.57
2018-05-14T03:24:32.070Z,13.55
2018-05-14T03:25:41.812Z,13.52
2018-05-14T03:26:51.914Z,13.46
2018-05-14T03:28:01.664Z,13.6
2018-05-14T03:29:11.143Z,13.6
2018-05-14T03:30:21.160Z,13.67
2018-05-14T03:31:31.186Z,13.73
2018-05-14T03:32:40.951Z,13.67
2018-05-14T03:33:50.699Z,13.71
2018-05-14T03:35:00.171Z,13.73
2018-05-14T03:36:09.653Z,13.75
2018-05-14T03:37:19.679Z,13.78
2018-05-14T03:38:29.168Z,13.75
2018-05-14T03:39:39.187Z,13.65
2018-05-14T03:40:48.935Z,13.78
2018-05-14T03:41:58.948Z,13.7
2018-05-14T03:43:08.983Z,13.73
2018-05-14T03:44:18.729Z,13.76
2018-05-14T03:45:28.479Z,13.78
2018-05-14T03:46:37.952Z,13.71
2018-05-14T03:47:47.706Z,13.78
2018-05-14T03:48:57.804Z,13.79
2018-05-14T03:50:07.563Z,13.79
2018-05-14T03:51:17.311Z,13.78
2018-05-14T03:52:27.324Z,13.78
2018-05-14T03:53:37.331Z,13.82
2018-05-14T03:54:47.075Z,13.82
2018-05-14T03:55:56.817Z,13.78
2018-05-14T03:57:06.302Z,13.79
2018-05-14T03:58:16.136Z,13.71
2018-05-14T03:59:25.875Z,13.64
2018-05-14T04:00:35.888Z,13.76
2018-05-14T04:01:45.902Z,13.76
2018-05-14T04:02:55.914Z,13.75
2018-05-14T04:04:05.404Z,13.7
2018-05-14T04:05:15.142Z,13.75
2018-05-14T04:06:24.628Z,13.76
2018-05-14T04:07:34.642Z,13.79
2018-05-14T04:08:44.662Z,13.71
2018-05-14T04:09:54.689Z,13.76
2018-05-14T04:11:04.431Z,13.85
2018-05-14T04:12:14.174Z,13.8
2018-05-14T04:13:23.658Z,13.8
2018-05-14T04:14:33.405Z,13.76
2018-05-14T04:15:43.417Z,13.8
2018-05-14T04:16:53.429Z,13.8
2018-05-14T04:18:03.437Z,13.83
2018-05-14T04:19:13.451Z,13.86
2018-05-14T04:20:22.927Z,13.78
2018-05-14T04:21:32.401Z,13.89
2018-05-14T04:22:42.411Z,13.8
2018-05-14T04:23:52.419Z,13.79
2018-05-14T04:25:01.900Z,13.8
2018-05-14T04:26:11.967Z,13.87
2018-05-14T04:27:21.720Z,13.85
2018-05-14T04:28:31.732Z,13.78
2018-05-14T04:29:41.484Z,13.89
2018-05-14T04:30:51.501Z,13.87
2018-05-14T04:32:01.248Z,13.79
2018-05-14T04:33:10.997Z,13.83
2018-05-14T04:34:21.011Z,13.8
2018-05-14T04:35:30.753Z,13.82
2018-05-14T04:36:40.498Z,13.83
2018-05-14T04:37:50.043Z,13.79
2018-05-14T04:38:59.792Z,13.95
2018-05-14T04:40:09.828Z,13.89
2018-05-14T04:41:19.577Z,13.98
2018-05-14T04:42:29.594Z,13.94
2018-05-14T04:43:39.346Z,14.07
2018-05-14T04:44:49.116Z,14.07
2018-05-14T04:45:58.872Z,14.04
2018-05-14T04:47:08.612Z,14.12
2018-05-14T04:48:18.637Z,14.08
2018-05-14T04:49:28.118Z,14.12
2018-05-14T04:50:37.865Z,14.22
2018-05-14T04:51:47.632Z,14.25
2018-05-14T04:52:57.647Z,14.28
2018-05-14T04:54:07.658Z,14.2
2018-05-14T04:55:17.677Z,14.33
2018-05-14T04:56:27.723Z,14.31
2018-05-14T04:57:37.471Z,14.34
2018-05-14T04:58:46.952Z,14.26
2018-05-14T04:59:57.045Z,14.31
2018-05-14T05:01:06.787Z,14.28
2018-05-14T05:02:16.801Z,14.33
2018-05-14T05:03:26.830Z,14.33
2018-05-14T05:04:36.580Z,14.36
2018-05-14T05:05:46.377Z,14.28
2018-05-14T05:06:56.464Z,14.25
2018-05-14T05:08:06.664Z,14.3
2018-05-14T05:09:16.408Z,14.28
2018-05-14T05:10:26.268Z,14.28
2018-05-14T05:11:36.280Z,14.33
2018-05-14T05:12:46.408Z,14.28
2018-05-14T05:13:56.431Z,14.3
2018-05-14T05:15:06.180Z,14.26
2018-05-14T05:16:16.190Z,14.45
2018-05-14T05:17:26.327Z,14.41
2018-05-14T05:18:36.140Z,14.43
2018-05-14T05:19:45.616Z,14.33
2018-05-14T05:20:55.370Z,14.37
2018-05-14T05:22:04.849Z,14.33
2018-05-14T05:23:14.869Z,14.38
2018-05-14T05:24:24.940Z,14.43
2018-05-14T05:25:34.684Z,14.37
2018-05-14T05:26:44.425Z,14.38
2018-05-14T05:27:54.436Z,14.41
2018-05-14T05:29:04.455Z,14.34
2018-05-14T05:30:13.933Z,14.43
2018-05-14T05:31:23.948Z,14.44
2018-05-14T05:32:33.430Z,14.43
2018-05-14T05:33:43.174Z,14.37
2018-05-14T05:34:53.197Z,14.36
2018-05-14T05:36:03.214Z,14.36
2018-05-14T05:37:12.979Z,14.4
2018-05-14T05:38:22.995Z,14.38
2018-05-14T05:39:32.747Z,14.4
2018-05-14T05:40:42.776Z,14.51
2018-05-14T05:41:52.785Z,14.59
2018-05-14T05:43:02.529Z,14.48
2018-05-14T05:44:12.547Z,14.52
2018-05-14T05:45:22.710Z,14.55
2018-05-14T05:46:32.225Z,14.58
2018-05-14T05:47:41.978Z,14.49
2018-05-14T05:48:51.989Z,14.49
2018-05-14T05:50:02.008Z,14.49
2018-05-14T05:51:12.022Z,14.44
2018-05-14T05:52:22.064Z,14.41
2018-05-14T05:53:32.341Z,14.53
2018-05-14T05:54:41.549Z,14.45
2018-05-14T05:55:51.306Z,14.4
2018-05-14T05:57:01.052Z,14.51
2018-05-14T05:58:11.072Z,14.45
2018-05-14T05:59:20.823Z,14.51
2018-05-14T06:00:30.935Z,14.48
2018-05-14T06:01:40.694Z,14.52
2018-05-14T06:02:50.173Z,14.49
2018-05-14T06:04:00.188Z,14.55
2018-05-14T06:05:09.934Z,14.55
2018-05-14T06:06:19.964Z,14.62
2018-05-14T06:07:29.708Z,14.53
2018-05-14T06:08:39.724Z,14.55
2018-05-14T06:09:49.205Z,14.52
2018-05-14T06:10:58.951Z,14.55
2018-05-14T06:12:09.007Z,14.52
2018-05-14T06:13:19.040Z,14.52
2018-05-14T06:14:28.797Z,14.62
2018-05-14T06:15:38.836Z,14.52
2018-05-14T06:16:48.591Z,14.66
2018-05-14T06:17:58.339Z,14.67
2018-05-14T06:19:08.089Z,14.63
2018-05-14T06:20:17.834Z,14.61
2018-05-14T06:21:27.579Z,14.62
2018-05-14T06:22:37.591Z,14.74
2018-05-14T06:23:47.602Z,14.77
2018-05-14T06:24:57.617Z,14.73
2018-05-14T06:26:07.133Z,14.77
2018-05-14T06:27:16.879Z,14.74
2018-05-14T06:28:26.623Z,14.79
2018-05-14T06:29:36.647Z,14.89
2018-05-14T06:30:46.735Z,14.94
2018-05-14T06:31:56.821Z,14.87
2018-05-14T06:33:06.752Z,14.82
2018-05-14T06:34:16.496Z,14.9
2018-05-14T06:35:26.428Z,14.93
2018-05-14T06:36:36.743Z,14.9
2018-05-14T06:37:46.768Z,14.92
2018-05-14T06:38:56.896Z,14.87
2018-05-14T06:40:06.962Z,14.94
2018-05-14T06:41:17.004Z,14.86
2018-05-14T06:42:26.754Z,14.86
2018-05-14T06:43:35.966Z,14.92
2018-05-14T06:44:45.719Z,14.96
2018-05-14T06:45:55.742Z,15.04
2018-05-14T06:47:05.755Z,15.12
2018-05-14T06:48:15.501Z,15.14
2018-05-14T06:49:25.258Z,15.18
2018-05-14T06:50:35.280Z,15.1
2018-05-14T06:51:44.768Z,15.17
2018-05-14T06:52:54.526Z,15.22
2018-05-14T06:54:04.563Z,15.18
2018-05-14T06:55:14.776Z,15.19
2018-05-14T06:56:24.792Z,15.17
2018-05-14T06:57:34.810Z,15.22
2018-05-14T06:58:44.888Z,15.22
2018-05-14T06:59:54.371Z,15.25
2018-05-14T07:01:04.385Z,15.18
2018-05-14T07:02:13.863Z,15.27
2018-05-14T07:03:23.904Z,15.33
2018-05-14T07:04:33.953Z,15.39
2018-05-14T07:05:43.977Z,15.37
2018-05-14T07:06:54.001Z,15.43
2018-05-14T07:08:03.760Z,15.36
2018-05-14T07:09:13.512Z,15.44
2018-05-14T07:10:23.541Z,15.43
2018-05-14T07:11:33.754Z,15.36
2018-05-14T07:12:43.528Z,15.43
2018-05-14T07:13:53.755Z,15.39
2018-05-14T07:15:03.233Z,15.47
2018-05-14T07:16:13.253Z,15.48
2018-05-14T07:17:23.008Z,15.59
2018-05-14T07:18:32.757Z,15.63
2018-05-14T07:19:42.511Z,15.65
2018-05-14T07:20:52.541Z,15.69
2018-05-14T07:22:02.555Z,15.76
2018-05-14T07:23:12.041Z,15.75
2018-05-14T07:24:21.521Z,15.81
2018-05-14T07:25:31.271Z,15.76
2018-05-14T07:26:41.019Z,15.81
2018-05-14T07:27:50.769Z,15.72
2018-05-14T07:29:00.247Z,15.8
2018-05-14T07:30:09.555Z,15.85
2018-05-14T07:31:19.549Z,15.88
2018-05-14T07:32:29.570Z,16
2018-05-14T07:33:39.319Z,15.98
2018-05-14T07:34:48.805Z,16.09
2018-05-14T07:35:58.287Z,16.03
2018-05-14T07:37:08.387Z,16.17
2018-05-14T07:38:18.133Z,16.16
2018-05-14T07:39:28.158Z,16.17
2018-05-14T07:40:38.291Z,16.22
2018-05-14T07:41:48.316Z,16.28
2018-05-14T07:42:58.341Z,16.34
2018-05-14T07:44:07.822Z,16.41
2018-05-14T07:45:17.573Z,16.47
2018-05-14T07:46:27.453Z,16.54
2018-05-14T07:47:37.595Z,16.5
2018-05-14T07:48:47.689Z,16.58
2018-05-14T07:49:57.435Z,16.66
2018-05-14T07:51:07.019Z,16.77
2018-05-14T07:52:17.031Z,16.82
2018-05-14T07:53:27.047Z,16.91
2018-05-14T07:54:36.645Z,16.99
2018-05-14T07:55:46.658Z,17.1
2018-05-14T07:56:56.679Z,17.05
2018-05-14T07:58:06.159Z,17.17
2018-05-14T07:59:15.374Z,17.27
2018-05-14T08:00:25.559Z,17.27
2018-05-14T08:01:35.317Z,17.37
2018-05-14T08:02:45.332Z,17.46
2018-05-14T08:03:55.083Z,17.47
2018-05-14T08:05:04.833Z,17.5
2018-05-14T08:06:14.586Z,17.54
2018-05-14T08:07:24.335Z,17.66
2018-05-14T08:08:34.352Z,17.68
2018-05-14T08:09:44.389Z,17.79
2018-05-14T08:10:53.869Z,17.84
2018-05-14T08:12:03.614Z,17.78
2018-05-14T08:13:12.825Z,17.86
2018-05-14T08:14:22.841Z,17.91
2018-05-14T08:15:32.606Z,17.94
2018-05-14T08:16:42.620Z,18.02
2018-05-14T08:17:52.101Z,18.05
2018-05-14T08:19:01.849Z,18.18
2018-05-14T08:20:11.597Z,18.19
2018-05-14T08:21:21.360Z,18.26
2018-05-14T08:22:31.388Z,18.28
2018-05-14T08:23:41.437Z,18.33
2018-05-14T08:24:51.449Z,18.37
2018-05-14T08:26:01.237Z,18.49
2018-05-14T08:27:11.249Z,18.39
2018-05-14T08:28:21.269Z,18.42
2018-05-14T08:29:31.012Z,18.49
2018-05-14T08:30:40.763Z,18.61
2018-05-14T08:31:50.516Z,18.55
2018-05-14T08:33:00.269Z,18.61
2018-05-14T08:34:10.202Z,18.6
2018-05-14T08:35:20.210Z,18.73
2018-05-14T08:36:30.230Z,18.81
2018-05-14T08:37:40.244Z,18.89
2018-05-14T08:38:50.271Z,18.85
2018-05-14T08:40:00.021Z,18.92
2018-05-14T08:41:09.792Z,18.86
2018-05-14T08:42:19.662Z,19.01
2018-05-14T08:43:29.497Z,19.01
2018-05-14T08:44:39.283Z,19.16
2018-05-14T08:45:48.768Z,19.11
2018-05-14T08:46:58.816Z,19.2
2018-05-14T08:48:08.541Z,19.11
2018-05-14T08:49:18.566Z,19.23
2018-05-14T08:50:28.591Z,19.32
2018-05-14T08:51:38.617Z,19.3
2018-05-14T08:52:48.628Z,19.34
2018-05-14T08:53:58.644Z,19.39
2018-05-14T08:55:08.437Z,19.49
2018-05-14T08:56:18.184Z,19.45
2018-05-14T08:57:28.197Z,19.44
2018-05-14T08:58:38.316Z,19.56
2018-05-14T08:59:47.803Z,19.72
2018-05-14T09:00:57.284Z,19.6
2018-05-14T09:02:07.041Z,19.66
2018-05-14T09:03:16.788Z,19.71
2018-05-14T09:04:26.803Z,19.71
2018-05-14T09:05:36.831Z,19.72
2018-05-14T09:06:46.583Z,19.79
2018-05-14T09:07:56.607Z,19.72
2018-05-14T09:09:06.513Z,19.82
2018-05-14T09:10:16.257Z,19.9
2018-05-14T09:11:25.200Z,19.96
2018-05-14T09:12:34.948Z,19.99
2018-05-14T09:13:44.434Z,19.97
2018-05-14T09:14:54.187Z,20.08
2018-05-14T09:16:04.238Z,20.07
2018-05-14T09:17:13.988Z,20.11
2018-05-14T09:18:23.210Z,20.12
2018-05-14T09:19:33.145Z,20.11
2018-05-14T09:20:43.337Z,20.19
2018-05-14T09:21:53.086Z,20.21
2018-05-14T09:23:02.848Z,20.21
2018-05-14T09:24:12.877Z,20.29
2018-05-14T09:25:22.903Z,20.27
2018-05-14T09:26:32.795Z,20.3
2018-05-14T09:27:42.275Z,20.44
2018-05-14T09:28:52.044Z,20.36
2018-05-14T09:30:02.060Z,20.49
2018-05-14T09:31:11.819Z,20.48
2018-05-14T09:32:21.978Z,20.48
2018-05-14T09:33:31.727Z,20.49
2018-05-14T09:34:41.209Z,20.58
2018-05-14T09:35:51.235Z,20.6
2018-05-14T09:37:01.255Z,20.64
2018-05-14T09:38:10.467Z,20.7
2018-05-14T09:39:20.317Z,20.77
2018-05-14T09:40:30.065Z,20.77
2018-05-14T09:41:39.278Z,20.85
2018-05-14T09:42:49.294Z,20.92
2018-05-14T09:43:59.047Z,20.96
2018-05-14T09:45:08.528Z,20.95
2018-05-14T09:46:18.543Z,21.05
2018-05-14T09:47:28.308Z,21.03
2018-05-14T09:48:37.796Z,21
2018-05-14T09:49:47.553Z,21.07
2018-05-14T09:50:57.632Z,21.08
2018-05-14T09:52:07.119Z,21.23
2018-05-14T09:53:16.877Z,21.29
2018-05-14T09:54:26.629Z,21.29
2018-05-14T09:55:36.646Z,21.37
2018-05-14T09:56:46.663Z,21.29
2018-05-14T09:57:56.152Z,21.44
2018-05-14T09:59:06.125Z,21.48
2018-05-14T10:00:16.038Z,21.5
2018-05-14T10:01:25.988Z,21.62
2018-05-14T10:02:36.034Z,21.63
2018-05-14T10:03:45.923Z,21.66
2018-05-14T10:04:55.784Z,21.66
2018-05-14T10:06:05.806Z,21.72
2018-05-14T10:07:15.878Z,21.77
2018-05-14T10:08:25.898Z,21.77
2018-05-14T10:09:35.660Z,21.94
2018-05-14T10:10:45.677Z,21.92
2018-05-14T10:11:55.449Z,21.91
2018-05-14T10:13:05.323Z,22.01
2018-05-14T10:14:15.137Z,21.99
2018-05-14T10:15:24.643Z,22.07
2018-05-14T10:16:34.395Z,22.14
2018-05-14T10:17:43.901Z,22.07
2018-05-14T10:18:54.135Z,22.16
2018-05-14T10:20:03.987Z,22.22
2018-05-14T10:21:13.466Z,22.16
2018-05-14T10:22:23.487Z,22.22
2018-05-14T10:23:33.502Z,22.23
2018-05-14T10:24:43.844Z,22.3
2018-05-14T10:25:54.161Z,22.33
2018-05-14T10:27:03.939Z,22.46
2018-05-14T10:28:13.954Z,22.43
2018-05-14T10:29:23.978Z,22.44
2018-05-14T10:30:33.460Z,22.47
2018-05-14T10:31:42.951Z,22.44
2018-05-14T10:32:52.988Z,22.55
2018-05-14T10:34:03.005Z,22.53
2018-05-14T10:35:12.756Z,22.58
2018-05-14T10:36:22.781Z,22.62
2018-05-14T10:37:32.630Z,22.67
2018-05-14T10:38:42.649Z,22.67
2018-05-14T10:39:52.685Z,22.73
2018-05-14T10:41:02.702Z,22.86
2018-05-14T10:42:12.453Z,22.81
2018-05-14T10:43:22.215Z,22.83
2018-05-14T10:44:32.233Z,22.89
2018-05-14T10:45:41.716Z,22.84
2018-05-14T10:46:51.170Z,22.95
2018-05-14T10:48:01.248Z,22.95
2018-05-14T10:49:11.000Z,22.92
2018-05-14T10:50:20.748Z,23.02
2018-05-14T10:51:30.769Z,23.04
2018-05-14T10:52:40.523Z,22.99
2018-05-14T10:53:50.425Z,23.07
2018-05-14T10:55:00.181Z,23.11
2018-05-14T10:56:10.304Z,23.2
2018-05-14T10:57:20.065Z,23.18
2018-05-14T10:58:30.160Z,23.2
2018-05-14T10:59:39.722Z,23.25
2018-05-14T11:00:49.746Z,23.21
2018-05-14T11:01:59.504Z,23.29
2018-05-14T11:03:08.988Z,23.29
2018-05-14T11:04:18.744Z,23.39
2018-05-14T11:05:28.763Z,23.37
2018-05-14T11:06:38.515Z,23.42
2018-05-14T11:07:48.006Z,23.39
2018-05-14T11:08:58.030Z,23.45
2018-05-14T11:10:07.793Z,23.39
2018-05-14T11:11:17.547Z,23.4
2018-05-14T11:12:27.571Z,23.45
2018-05-14T11:13:37.330Z,23.58
2018-05-14T11:14:47.089Z,23.58
2018-05-14T11:15:57.119Z,23.62
2018-05-14T11:17:06.871Z,23.62
2018-05-14T11:18:16.621Z,23.71
2018-05-14T11:19:26.642Z,23.76
2018-05-14T11:20:35.859Z,23.77
2018-05-14T11:21:44.549Z,23.91
2018-05-14T11:22:54.577Z,24.01
2018-05-14T11:24:04.361Z,24.21
2018-05-14T11:25:14.109Z,24.62
2018-05-14T11:26:23.595Z,24.86
2018-05-14T11:27:33.527Z,25.4
2018-05-14T11:28:43.345Z,25.76
2018-05-14T11:29:53.156Z,26.13
2018-05-14T11:31:03.172Z,26.56
2018-05-14T11:32:12.935Z,27.05
2018-05-14T11:33:22.425Z,27.26
2018-05-14T11:34:32.456Z,27.55
2018-05-14T11:35:42.486Z,28.12
2018-05-14T11:36:52.519Z,28.19
2018-05-14T11:38:02.543Z,28.57
2018-05-14T11:39:12.300Z,28.68
2018-05-14T11:40:22.066Z,29.06
2018-05-14T11:41:31.935Z,29.28
2018-05-14T11:42:41.770Z,29.62
2018-05-14T11:43:51.803Z,29.99
2018-05-14T11:45:01.558Z,30.39
2018-05-14T11:46:11.051Z,30.8
2018-05-14T11:47:21.078Z,30.96
2018-05-14T11:48:30.840Z,31.33
2018-05-14T11:49:40.974Z,31.57
2018-05-14T11:50:50.752Z,31.77
2018-05-14T11:52:01.075Z,32
2018-05-14T11:53:10.837Z,32.19
2018-05-14T11:54:20.866Z,32.29
2018-05-14T11:55:30.899Z,32.59
2018-05-14T11:56:40.790Z,32.81
2018-05-14T11:57:50.635Z,33.03
2018-05-14T11:59:01.301Z,33.19
2018-05-14T12:00:11.339Z,33.23
2018-05-14T12:01:21.118Z,33.63
2018-05-14T12:02:30.885Z,33.76
2018-05-14T12:03:40.650Z,33.98
2018-05-14T12:04:49.874Z,33.75
2018-05-14T12:05:59.643Z,34.14
2018-05-14T12:07:09.136Z,34.16
2018-05-14T12:08:19.172Z,34.4
2018-05-14T12:09:28.951Z,34.69
2018-05-14T12:10:39.041Z,34.88
2018-05-14T12:11:48.820Z,35.07
2018-05-14T12:12:58.043Z,35.2
2018-05-14T12:14:07.911Z,35.12
2018-05-14T12:15:17.679Z,35.6
2018-05-14T12:16:27.860Z,35.71
2018-05-14T12:17:37.623Z,35.98
2018-05-14T12:18:47.390Z,36.08
2018-05-14T12:19:57.424Z,36.13
2018-05-14T12:21:06.933Z,35.9
2018-05-14T12:22:16.952Z,36.28
2018-05-14T12:23:26.450Z,36.5
2018-05-14T12:24:36.491Z,36.8
2018-05-14T12:25:46.713Z,36.85
2018-05-14T12:26:56.750Z,37.09
2018-05-14T12:28:06.516Z,37.21
2018-05-14T12:29:16.549Z,37.29
2018-05-14T12:30:26.316Z,37.22
2018-05-14T12:31:35.817Z,37.37
2018-05-14T12:32:45.585Z,37.29
2018-05-14T12:33:55.359Z,37.21
2018-05-14T12:35:04.854Z,37.11
2018-05-14T12:36:14.624Z,37.23
2018-05-14T12:37:24.425Z,37.44
2018-05-14T12:38:34.584Z,37.71
2018-05-14T12:39:44.436Z,37.82
2018-05-14T12:40:54.471Z,37.95
2018-05-14T12:42:04.253Z,38.04
2018-05-14T12:43:14.313Z,38.1
2018-05-14T12:44:23.818Z,38.1
2018-05-14T12:45:33.936Z,38.47
2018-05-14T12:46:43.724Z,38.75
2018-05-14T12:47:53.778Z,38.57
2018-05-14T12:49:03.275Z,38.58
2018-05-14T12:50:12.777Z,38.72
2018-05-14T12:51:22.846Z,38.9
2018-05-14T12:52:32.890Z,39
2018-05-14T12:53:42.939Z,38.96
2018-05-14T12:54:52.980Z,39.14
2018-05-14T12:56:03.017Z,39.22
2018-05-14T12:57:13.234Z,39.27
2018-05-14T12:58:23.182Z,39.19
2018-05-14T12:59:32.963Z,39.2
2018-05-14T13:00:43.001Z,39.03
2018-05-14T13:01:53.054Z,39.22
2018-05-14T13:03:02.906Z,39.34
2018-05-14T13:04:12.407Z,39.37
2018-05-14T13:05:22.174Z,39.38
2018-05-14T13:06:32.251Z,39.44
2018-05-14T13:07:42.284Z,39.41
2018-05-14T13:08:52.332Z,39.45
2018-05-14T13:10:02.373Z,39.6
2018-05-14T13:11:11.869Z,39.66
2018-05-14T13:12:21.910Z,39.71
2018-05-14T13:13:31.953Z,39.32
2018-05-14T13:14:41.460Z,39.49
2018-05-14T13:15:51.494Z,39.33
2018-05-14T13:17:00.729Z,39.33
2018-05-14T13:18:10.245Z,39.42
2018-05-14T13:19:20.389Z,39.54
2018-05-14T13:20:29.712Z,39.63
2018-05-14T13:21:39.218Z,39.68
2018-05-14T13:22:49.253Z,39.76
2018-05-14T13:23:59.304Z,39.98
2018-05-14T13:25:08.536Z,40.14
2018-05-14T13:26:18.740Z,40.12
2018-05-14T13:27:29.091Z,40.39
2018-05-14T13:28:39.127Z,40.76
2018-05-14T13:29:49.175Z,41
2018-05-14T13:30:59.216Z,41.14
2018-05-14T13:32:09.422Z,41.29
2018-05-14T13:33:19.552Z,41.24
2018-05-14T13:34:29.587Z,41.26
2018-05-14T13:35:39.357Z,41.44
2018-05-14T13:36:48.943Z,41.37
2018-05-14T13:37:59.185Z,41.42
2018-05-14T13:39:08.777Z,41.52
2018-05-14T13:40:18.816Z,41.57
2018-05-14T13:41:28.585Z,41.48
2018-05-14T13:42:38.635Z,41.37
2018-05-14T13:43:48.675Z,41.41
2018-05-14T13:44:58.444Z,41.07
2018-05-14T13:46:08.483Z,41.36
2018-05-14T13:47:18.520Z,41.51
2018-05-14T13:48:28.292Z,41.83
2018-05-14T13:49:38.067Z,41.65
2018-05-14T13:50:47.841Z,41.87
2018-05-14T13:51:57.747Z,41.91
2018-05-14T13:53:07.792Z,41.99
2018-05-14T13:54:17.835Z,42.18
2018-05-14T13:55:27.868Z,41.99
2018-05-14T13:56:37.902Z,42.03
2018-05-14T13:57:47.942Z,41.68
2018-05-14T13:58:57.451Z,41.81
2018-05-14T14:00:07.240Z,42
2018-05-14T14:01:16.760Z,42.14
2018-05-14T14:02:26.542Z,42.2
2018-05-14T14:03:36.583Z,42.28
2018-05-14T14:04:46.351Z,42.21
2018-05-14T14:05:56.228Z,42.36
2018-05-14T14:07:05.993Z,42.51
2018-05-14T14:08:16.038Z,42.2
2018-05-14T14:09:25.616Z,41.96
2018-05-14T14:10:35.390Z,41.87
2018-05-14T14:11:45.432Z,41.87
2018-05-14T14:12:54.936Z,41.73
2018-05-14T14:14:04.438Z,41.52
2018-05-14T14:15:14.475Z,41.52
2018-05-14T14:16:23.974Z,41.64
2018-05-14T14:17:34.026Z,41.63
2018-05-14T14:18:44.059Z,41.64
2018-05-14T14:19:53.564Z,41.64
2018-05-14T14:21:03.068Z,41.9
2018-05-14T14:22:12.831Z,41.76
2018-05-14T14:23:22.956Z,41.83
2018-05-14T14:24:33.207Z,41.88
2018-05-14T14:25:43.241Z,41.88
2018-05-14T14:26:53.006Z,41.91
2018-05-14T14:28:02.507Z,42.05
2018-05-14T14:29:12.286Z,41.9
2018-05-14T14:30:22.055Z,42.05
2018-05-14T14:31:32.097Z,41.83
2018-05-14T14:32:41.874Z,41.74
2018-05-14T14:33:51.919Z,41.68
2018-05-14T14:35:01.962Z,41.44
2018-05-14T14:36:12.115Z,41.64
2018-05-14T14:37:22.490Z,41.52
2018-05-14T14:38:32.530Z,41.84
2018-05-14T14:39:42.295Z,41.91
2018-05-14T14:40:52.066Z,41.87
2018-05-14T14:42:02.192Z,41.83
2018-05-14T14:43:12.213Z,42
2018-05-14T14:44:21.711Z,42.07
2018-05-14T14:45:31.765Z,42.22
2018-05-14T14:46:41.807Z,42.27
2018-05-14T14:47:51.846Z,42.32
2018-05-14T14:49:01.615Z,42.39
2018-05-14T14:50:11.781Z,41.99
2018-05-14T14:51:21.286Z,42.02
2018-05-14T14:52:31.316Z,42.41
2018-05-14T14:53:40.770Z,42.32
2018-05-14T14:54:49.639Z,42.4
2018-05-14T14:55:59.411Z,42.49
2018-05-14T14:57:08.910Z,42.63
2018-05-14T14:58:18.720Z,42.71
2018-05-14T14:59:28.784Z,42.81
2018-05-14T15:00:38.549Z,42.93
2018-05-14T15:01:48.046Z,43.11
2018-05-14T15:02:57.549Z,42.94
2018-05-14T15:04:07.321Z,42.99
2018-05-14T15:05:17.363Z,43.02
2018-05-14T15:06:27.130Z,43.08